Glacier National Park, MT

2:38 AM MDT on September 30, 2016 (GMT -0600)
Cut Bank Municipal | | Change Station

Elev 3855 ft 48.61 °N, 112.38 °W | Updated 42 minutes ago

Clear
Clear
43 °F
Feels Like 40 °F
N
6
Wind Variable Wind from West

Today
High -- | Low -- °F
--% Chance of Precip.
Yesterday
High -- | Low -- °F
Precip. -- in
Pressure 30.01 in
Visibility 9.0 miles
Clouds Clear
Windchill 40 °F
Dew Point 42 °F
Humidity 97%
Rainfall 0.00 in
Snow Depth Not available.
7:33 AM 7:13 PM
Waning Crescent, 0% visible
METAR KCTB 300756Z AUTO 28005KT 9SM CLR 06/06 A3004 RMK AO2 SLP162 T00610056
Pressure 30.01 in
Visibility 9.0 miles
Clouds Clear
Windchill 40 °F
Dew Point 42 °F
Humidity 97%
Rainfall 0.00 in
Snow Depth Not available.
7:33 AM 7:13 PM
Waning Crescent, 0% visible
METAR KCTB 300756Z AUTO 28005KT 9SM CLR 06/06 A3004 RMK AO2 SLP162 T00610056

10-Day Weather Forecast

Almanac

Astronomy

Sep. 30, 2016 Rise Set
Actual Time
Civil Twilight
Nautical Twilight
Astronomical Twilight
Moon
Length of Visible Light
Length of Day
Tomorrow will be .
, % of the Moon is Illuminated

Today's Extremes

State Highs State Lows

Community

WunderPhotos

Upload Photos

1,942,668 photos uploaded!

WunderBlog® & News

Nearby

Air Quality

  Air Quality AQ Index Pollutant
Not available.

Snow Depth

Station Depth Elevation

Earthquake Activity

City Distance Mag. Time & Date
Minimum magnitude displayed is 2.5.

Coastal Water Temperatures

Place Temperature

Stations

Nearby Weather Stations

Station Location Temp. Windchill Dew Point Humidity Wind Precip. Elev Updated Type
                   

Watches & Warnings

There are currently no watches in effect.